createdAt,value
2022-10-22T00:01:00.650Z,9.40
2022-10-22T00:03:27.176Z,9.57
2022-10-22T00:05:53.690Z,9.10
2022-10-22T00:08:20.198Z,9.52
2022-10-22T00:10:46.804Z,9.18
2022-10-22T00:13:13.503Z,8.95
2022-10-22T00:15:40.039Z,8.65
2022-10-22T00:18:06.586Z,10.00
2022-10-22T00:20:33.257Z,9.45
2022-10-22T00:22:59.758Z,10.20
2022-10-22T00:25:26.293Z,9.43
2022-10-22T00:27:52.797Z,9.70
2022-10-22T00:30:19.501Z,10.00
2022-10-22T00:32:46.002Z,9.82
2022-10-22T00:35:12.609Z,8.77
2022-10-22T00:37:39.100Z,9.27
2022-10-22T00:40:06.209Z,10.05
2022-10-22T00:42:32.743Z,9.07
2022-10-22T00:45:16.805Z,11.95
2022-10-22T00:47:48.939Z,10.00
2022-10-22T00:50:30.041Z,10.00
2022-10-22T00:52:57.981Z,11.13
2022-10-22T00:55:26.362Z,11.18
2022-10-22T00:57:54.309Z,10.27
2022-10-22T01:00:21.422Z,10.48
2022-10-22T01:02:49.533Z,12.43
2022-10-22T01:05:16.128Z,11.50
2022-10-22T01:07:51.375Z,10.38
2022-10-22T01:10:42.767Z,11.90
2022-10-22T01:13:26.435Z,13.32
2022-10-22T01:16:00.454Z,8.77
2022-10-22T01:18:39.386Z,12.48
2022-10-22T01:21:32.029Z,12.00
2022-10-22T01:24:20.486Z,11.48
2022-10-22T01:27:00.400Z,11.02
2022-10-22T01:29:38.570Z,13.20
2022-10-22T01:32:13.118Z,14.18
2022-10-22T01:34:41.849Z,11.20
2022-10-22T01:37:09.053Z,13.77
2022-10-22T01:39:36.799Z,11.88
2022-10-22T01:42:04.051Z,12.98
2022-10-22T01:44:37.454Z,13.85
2022-10-22T01:47:13.510Z,12.52
2022-10-22T01:49:56.878Z,12.20
2022-10-22T01:53:03.848Z,12.95
2022-10-22T01:55:44.461Z,12.30
2022-10-22T01:58:22.421Z,12.88
2022-10-22T02:01:00.159Z,13.35
2022-10-22T02:03:31.735Z,11.52
2022-10-22T02:06:03.112Z,12.57
2022-10-22T02:08:32.056Z,11.38
2022-10-22T02:10:59.504Z,12.25
2022-10-22T02:13:29.918Z,14.48
2022-10-22T02:15:58.055Z,13.75
2022-10-22T02:18:27.846Z,13.07
2022-10-22T02:20:54.671Z,12.98
2022-10-22T02:23:22.096Z,13.43
2022-10-22T02:26:06.999Z,13.20
2022-10-22T02:28:39.505Z,12.20
2022-10-22T02:31:19.424Z,14.07
2022-10-22T02:33:49.337Z,11.68
2022-10-22T02:36:16.725Z,13.63
2022-10-22T02:38:43.483Z,13.20
2022-10-22T02:41:10.095Z,10.52
2022-10-22T02:43:44.737Z,11.93
2022-10-22T02:46:11.462Z,13.60
2022-10-22T02:48:37.958Z,12.65
2022-10-22T02:51:04.490Z,14.23
2022-10-22T02:53:31.217Z,13.00
2022-10-22T02:55:58.214Z,12.77
2022-10-22T02:58:24.719Z,13.20
2022-10-22T03:00:51.311Z,14.52
2022-10-22T03:03:17.892Z,14.70
2022-10-22T03:05:44.386Z,15.15
2022-10-22T03:08:11.366Z,14.32
2022-10-22T03:10:37.849Z,14.15
2022-10-22T03:13:04.389Z,12.15
2022-10-22T03:15:30.944Z,14.65
2022-10-22T03:17:57.457Z,15.80
2022-10-22T03:20:23.974Z,16.15
2022-10-22T03:22:50.673Z,17.45
2022-10-22T03:25:20.627Z,16.05
2022-10-22T03:27:47.580Z,17.63
2022-10-22T03:30:14.144Z,18.00
2022-10-22T03:32:40.646Z,17.05
2022-10-22T03:35:07.489Z,16.73
2022-10-22T03:37:34.896Z,17.80
2022-10-22T03:40:02.413Z,17.75
2022-10-22T03:42:29.059Z,15.43
2022-10-22T03:44:55.576Z,17.95
2022-10-22T03:47:24.430Z,18.27
2022-10-22T03:49:51.989Z,18.67
2022-10-22T03:52:18.540Z,18.27
2022-10-22T03:54:45.160Z,18.08
2022-10-22T03:57:12.038Z,16.45
2022-10-22T03:59:41.437Z,17.20
2022-10-22T04:02:08.710Z,16.33
2022-10-22T04:04:36.098Z,18.80
2022-10-22T04:07:03.071Z,18.05
2022-10-22T04:09:33.525Z,16.13
2022-10-22T04:12:00.600Z,17.33
2022-10-22T04:14:27.114Z,16.58
2022-10-22T04:16:54.682Z,17.17
2022-10-22T04:19:21.224Z,18.15
2022-10-22T04:21:47.724Z,13.70
2022-10-22T04:24:14.313Z,17.42
2022-10-22T04:26:41.058Z,16.75
2022-10-22T04:29:11.777Z,16.92
2022-10-22T04:31:41.670Z,16.27
2022-10-22T04:34:08.137Z,17.08
2022-10-22T04:36:34.660Z,17.50
2022-10-22T04:39:01.998Z,17.73
2022-10-22T04:41:31.429Z,16.58
2022-10-22T04:43:58.596Z,16.23
2022-10-22T04:46:27.157Z,16.05
2022-10-22T04:48:53.699Z,16.60
2022-10-22T04:51:21.833Z,16.15
2022-10-22T04:53:48.570Z,17.73
2022-10-22T04:56:20.652Z,16.55
2022-10-22T04:58:58.520Z,15.73
2022-10-22T05:01:27.732Z,17.02
2022-10-22T05:03:57.356Z,15.73
2022-10-22T05:06:24.562Z,15.30
2022-10-22T05:08:56.223Z,16.83
2022-10-22T05:11:28.761Z,16.27
2022-10-22T05:13:56.985Z,17.48
2022-10-22T05:16:23.697Z,17.70
2022-10-22T05:18:50.405Z,17.52
2022-10-22T05:21:19.165Z,17.45
2022-10-22T05:23:47.096Z,17.23
2022-10-22T05:26:15.665Z,17.42
2022-10-22T05:28:42.358Z,15.65
2022-10-22T05:31:11.126Z,15.38
2022-10-22T05:33:38.028Z,17.10
2022-10-22T05:36:06.326Z,17.75
2022-10-22T05:38:33.933Z,16.80
2022-10-22T05:41:06.116Z,17.73
2022-10-22T05:43:32.649Z,15.48
2022-10-22T05:46:08.125Z,18.27
2022-10-22T05:48:35.069Z,14.57
2022-10-22T05:51:05.353Z,14.15
2022-10-22T05:53:36.302Z,16.80
2022-10-22T05:56:05.408Z,14.80
2022-10-22T05:58:32.062Z,13.10
2022-10-22T06:01:10.962Z,16.67
2022-10-22T06:03:37.482Z,15.38
2022-10-22T06:06:20.365Z,16.70
2022-10-22T06:08:51.696Z,14.35
2022-10-22T06:11:19.528Z,17.48
2022-10-22T06:13:46.258Z,15.40
2022-10-22T06:16:12.968Z,16.42
2022-10-22T06:18:39.501Z,15.55
2022-10-22T06:21:07.826Z,14.50
2022-10-22T06:23:34.724Z,12.57
2022-10-22T06:26:01.661Z,14.75
2022-10-22T06:28:28.585Z,14.77
2022-10-22T06:30:56.718Z,15.05
2022-10-22T06:33:23.286Z,15.10
2022-10-22T06:35:49.795Z,14.30
2022-10-22T06:38:16.335Z,14.20
2022-10-22T06:40:44.798Z,15.75
2022-10-22T06:43:14.777Z,15.40
2022-10-22T06:45:41.365Z,14.60
2022-10-22T06:48:07.883Z,15.98
2022-10-22T06:50:35.044Z,15.70
2022-10-22T06:53:01.621Z,14.85
2022-10-22T06:55:28.205Z,14.70
2022-10-22T06:57:55.479Z,15.10
2022-10-22T07:00:22.248Z,15.15
2022-10-22T07:02:56.480Z,14.02
2022-10-22T07:05:25.649Z,14.50
2022-10-22T07:07:52.145Z,14.88
2022-10-22T07:10:18.857Z,14.02
2022-10-22T07:12:45.356Z,13.57
2022-10-22T07:15:12.192Z,14.98
2022-10-22T07:20:10.599Z,14.00
2022-10-22T07:22:37.134Z,14.07
2022-10-22T07:25:07.362Z,13.27
2022-10-22T07:27:34.134Z,13.82
2022-10-22T07:30:01.422Z,12.52
2022-10-22T07:32:28.127Z,13.70
2022-10-22T07:34:54.663Z,13.13
2022-10-22T07:37:22.020Z,14.32
2022-10-22T07:39:49.151Z,13.30
2022-10-22T07:42:15.813Z,12.55
2022-10-22T07:44:42.333Z,12.18
2022-10-22T07:47:08.861Z,13.43
2022-10-22T07:49:35.414Z,11.63
2022-10-22T07:52:02.028Z,11.07
2022-10-22T07:54:28.581Z,10.30
2022-10-22T07:56:55.097Z,10.30
2022-10-22T07:59:21.602Z,10.15
2022-10-22T08:01:48.097Z,9.38
2022-10-22T08:04:14.818Z,10.13
2022-10-22T08:06:44.571Z,9.38
2022-10-22T08:09:13.790Z,7.75
2022-10-22T08:11:40.381Z,9.00
2022-10-22T08:14:06.913Z,9.10
2022-10-22T08:16:33.462Z,8.88
2022-10-22T08:19:00.007Z,9.23
2022-10-22T08:21:26.936Z,8.95
2022-10-22T08:23:53.520Z,8.73
2022-10-22T08:26:20.118Z,8.13
2022-10-22T08:28:46.658Z,8.45
2022-10-22T08:31:13.589Z,8.40
2022-10-22T08:33:40.886Z,8.32
2022-10-22T08:36:08.265Z,8.63
2022-10-22T08:38:35.264Z,8.90
2022-10-22T08:41:17.305Z,8.50
2022-10-22T08:43:57.064Z,8.07
2022-10-22T08:46:54.585Z,7.90
2022-10-22T08:49:26.584Z,7.72
2022-10-22T08:51:53.453Z,7.68
2022-10-22T08:54:32.310Z,7.70
2022-10-22T08:57:54.446Z,7.15
2022-10-22T09:00:22.800Z,7.10
2022-10-22T09:02:58.145Z,7.07
2022-10-22T09:05:35.396Z,7.43
2022-10-22T09:08:02.345Z,7.15
2022-10-22T09:10:33.297Z,7.43
2022-10-22T09:12:59.833Z,6.43
2022-10-22T09:15:26.976Z,6.65
2022-10-22T09:18:03.105Z,6.80
2022-10-22T09:20:40.124Z,6.18
2022-10-22T09:23:21.900Z,6.30
2022-10-22T09:25:49.181Z,6.38
2022-10-22T09:28:15.976Z,6.50
2022-10-22T09:30:43.337Z,6.07
2022-10-22T09:33:09.706Z,5.78
2022-10-22T09:35:44.477Z,6.47
2022-10-22T09:38:13.770Z,5.25
2022-10-22T09:40:44.202Z,5.75
2022-10-22T09:43:13.573Z,5.75
2022-10-22T09:45:40.686Z,5.68
2022-10-22T09:48:10.654Z,4.80
2022-10-22T09:50:41.553Z,5.35
2022-10-22T09:53:31.539Z,5.50
2022-10-22T09:56:00.349Z,4.80
2022-10-22T09:58:27.181Z,5.47
2022-10-22T10:00:56.892Z,5.40
2022-10-22T10:03:26.725Z,4.80
2022-10-22T10:05:55.555Z,4.30
2022-10-22T10:08:22.482Z,5.40
2022-10-22T10:11:19.605Z,4.68
2022-10-22T10:14:14.056Z,4.85
2022-10-22T10:16:45.032Z,5.35
2022-10-22T10:19:37.989Z,5.38
2022-10-22T10:22:10.843Z,5.15
2022-10-22T10:25:00.072Z,5.57
2022-10-22T10:27:43.562Z,5.40
2022-10-22T10:30:12.010Z,5.38
2022-10-22T10:33:12.669Z,5.72
2022-10-22T10:36:06.907Z,5.93
2022-10-22T10:41:28.747Z,5.65
2022-10-22T10:44:10.437Z,5.75
2022-10-22T10:47:03.348Z,5.32
2022-10-22T10:49:36.768Z,5.45
2022-10-22T10:52:17.393Z,5.95
2022-10-22T10:55:00.554Z,6.47
2022-10-22T10:57:51.389Z,5.80
2022-10-22T11:00:22.355Z,7.55
2022-10-22T11:03:19.818Z,5.88
2022-10-22T11:06:10.162Z,6.00
2022-10-22T11:08:50.007Z,6.03
2022-10-22T11:11:25.455Z,6.50
2022-10-22T11:14:04.287Z,7.10
2022-10-22T11:16:45.088Z,7.20
2022-10-22T11:19:50.306Z,7.35
2022-10-22T11:22:37.111Z,6.93
2022-10-22T11:25:12.636Z,7.38
2022-10-22T11:27:47.453Z,7.40
2022-10-22T11:30:22.155Z,8.23
2022-10-22T11:33:01.734Z,7.53
2022-10-22T11:35:36.558Z,7.72
2022-10-22T11:38:05.073Z,8.35
2022-10-22T11:40:39.489Z,8.27
2022-10-22T11:43:08.139Z,8.57
2022-10-22T11:45:40.343Z,8.88
2022-10-22T11:48:09.570Z,8.13
2022-10-22T11:50:46.953Z,7.60
2022-10-22T11:53:13.405Z,7.47
2022-10-22T11:55:45.374Z,7.90
2022-10-22T11:58:30.658Z,8.50
2022-10-22T12:01:02.976Z,8.00
2022-10-22T12:03:32.281Z,8.18
2022-10-22T12:06:04.703Z,8.18
2022-10-22T12:08:32.754Z,7.95
2022-10-22T12:11:13.855Z,7.93
2022-10-22T12:14:04.543Z,7.53
2022-10-22T12:16:55.654Z,7.50
2022-10-22T12:19:22.862Z,5.97
2022-10-22T12:21:58.361Z,7.10
2022-10-22T12:24:29.766Z,6.22
2022-10-22T12:26:56.305Z,6.10
2022-10-22T12:29:23.929Z,6.50
2022-10-22T12:31:50.566Z,5.63
2022-10-22T12:34:21.405Z,5.60
2022-10-22T12:36:52.144Z,4.95
2022-10-22T12:39:21.342Z,6.50
2022-10-22T12:41:47.854Z,5.90
2022-10-22T12:44:16.933Z,5.35
2022-10-22T12:46:45.592Z,6.20
2022-10-22T12:49:20.245Z,5.68
2022-10-22T12:51:47.552Z,5.50
2022-10-22T12:54:22.665Z,5.38
2022-10-22T12:56:49.757Z,5.68
2022-10-22T12:59:21.272Z,5.57
2022-10-22T13:01:48.960Z,4.55
2022-10-22T13:04:26.562Z,4.90
2022-10-22T13:07:16.949Z,4.75
2022-10-22T13:09:56.496Z,4.73
2022-10-22T13:12:27.754Z,4.90
2022-10-22T13:14:54.323Z,4.13
2022-10-22T13:17:41.773Z,4.18
2022-10-22T13:20:20.824Z,4.00
2022-10-22T13:23:04.582Z,4.13
2022-10-22T13:25:36.200Z,4.32
2022-10-22T13:28:14.945Z,3.97
2022-10-22T13:30:55.035Z,4.10
2022-10-22T13:33:34.893Z,4.20
2022-10-22T13:36:01.793Z,4.40
2022-10-22T13:38:28.702Z,4.45
2022-10-22T13:40:55.848Z,6.07
2022-10-22T13:43:22.915Z,4.75
2022-10-22T13:45:53.190Z,4.32
2022-10-22T13:48:21.869Z,4.57
2022-10-22T13:50:52.320Z,4.22
2022-10-22T13:53:24.328Z,4.07
2022-10-22T13:55:51.052Z,3.40
2022-10-22T13:58:23.866Z,4.05
2022-10-22T14:01:00.173Z,3.17
2022-10-22T14:03:29.894Z,4.30
2022-10-22T14:05:56.537Z,3.78
2022-10-22T14:08:25.653Z,3.40
2022-10-22T14:10:52.318Z,3.65
2022-10-22T14:13:19.871Z,4.15
2022-10-22T14:15:48.220Z,4.75
2022-10-22T14:18:26.292Z,5.15
2022-10-22T14:20:56.194Z,4.78
2022-10-22T14:23:24.973Z,4.38
2022-10-22T14:25:51.460Z,4.20
2022-10-22T14:28:18.033Z,4.63
2022-10-22T14:30:45.710Z,17.27
2022-10-22T14:33:15.163Z,24.60
2022-10-22T14:35:41.865Z,15.07
2022-10-22T14:38:08.454Z,7.32
2022-10-22T14:40:35.014Z,7.10
2022-10-22T14:43:01.550Z,6.22
2022-10-22T14:45:28.061Z,5.20
2022-10-22T14:47:57.460Z,5.30
2022-10-22T14:50:25.092Z,5.70
2022-10-22T14:52:51.813Z,5.38
2022-10-22T14:55:19.891Z,4.30
2022-10-22T14:57:46.429Z,4.85
2022-10-22T15:00:15.697Z,4.53
2022-10-22T15:02:42.785Z,3.72
2022-10-22T15:05:10.175Z,10.60
2022-10-22T15:07:37.145Z,26.80
2022-10-22T15:10:04.962Z,10.38
2022-10-22T15:12:31.585Z,20.92
2022-10-22T15:14:58.101Z,3.65
2022-10-22T15:17:24.587Z,3.30
2022-10-22T15:19:53.002Z,3.35
2022-10-22T15:22:20.510Z,2.42
2022-10-22T15:24:48.450Z,3.72
2022-10-22T15:27:15.200Z,3.17
2022-10-22T15:29:42.528Z,2.75
2022-10-22T15:32:12.696Z,2.83
2022-10-22T15:34:40.149Z,3.03
2022-10-22T15:37:10.529Z,3.38
2022-10-22T15:39:40.721Z,6.10
2022-10-22T15:42:07.683Z,4.65
2022-10-22T15:44:34.286Z,3.67
2022-10-22T15:47:03.714Z,2.97
2022-10-22T15:49:30.340Z,2.55
2022-10-22T15:51:57.129Z,2.47
2022-10-22T15:54:26.069Z,3.28
2022-10-22T15:56:52.585Z,2.15
2022-10-22T15:59:19.082Z,2.60
2022-10-22T16:01:45.989Z,3.00
2022-10-22T16:04:12.573Z,3.17
2022-10-22T16:06:47.646Z,2.55
2022-10-22T16:09:16.920Z,3.33
2022-10-22T16:11:43.975Z,3.53
2022-10-22T16:14:11.698Z,2.58
2022-10-22T16:16:42.578Z,3.47
2022-10-22T16:19:10.941Z,3.88
2022-10-22T16:21:37.477Z,3.03
2022-10-22T16:24:06.272Z,2.80
2022-10-22T16:26:33.338Z,3.13
2022-10-22T16:28:59.855Z,3.00
2022-10-22T16:31:26.366Z,2.88
2022-10-22T16:33:53.161Z,2.80
2022-10-22T16:36:20.428Z,2.28
2022-10-22T16:38:47.793Z,2.15
2022-10-22T16:41:20.357Z,2.08
2022-10-22T16:43:51.199Z,1.90
2022-10-22T16:46:19.273Z,2.67
2022-10-22T16:48:47.166Z,5.40
2022-10-22T16:51:14.989Z,3.45
2022-10-22T16:53:41.638Z,3.28
2022-10-22T16:56:12.647Z,3.60
2022-10-22T16:58:43.745Z,4.22
2022-10-22T17:01:10.620Z,2.58
2022-10-22T17:03:37.370Z,2.80
2022-10-22T17:06:04.766Z,2.42
2022-10-22T17:08:35.590Z,2.85
2022-10-22T17:11:09.414Z,3.20
2022-10-22T17:13:36.446Z,2.40
2022-10-22T17:16:08.715Z,2.47
2022-10-22T17:18:39.472Z,2.30
2022-10-22T17:21:08.090Z,2.13
2022-10-22T17:23:34.602Z,2.58
2022-10-22T17:26:02.926Z,2.92
2022-10-22T17:28:29.906Z,2.25
2022-10-22T17:31:03.196Z,2.63
2022-10-22T17:33:30.081Z,3.17
2022-10-22T17:35:56.614Z,2.90
2022-10-22T17:38:23.187Z,3.15
2022-10-22T17:40:49.711Z,2.30
2022-10-22T17:43:16.205Z,2.60
2022-10-22T17:45:42.702Z,2.78
2022-10-22T17:48:09.207Z,2.65
2022-10-22T17:50:40.358Z,4.20
2022-10-22T17:53:06.861Z,5.63
2022-10-22T17:55:34.701Z,6.93
2022-10-22T17:58:01.731Z,5.68
2022-10-22T18:00:32.188Z,6.38
2022-10-22T18:03:00.828Z,4.70
2022-10-22T18:05:27.690Z,4.75
2022-10-22T18:07:55.913Z,3.50
2022-10-22T18:10:23.186Z,3.97
2022-10-22T18:12:49.848Z,3.80
2022-10-22T18:15:16.741Z,3.20
2022-10-22T18:17:43.443Z,3.78
2022-10-22T18:20:10.680Z,3.70
2022-10-22T18:22:37.212Z,3.97
2022-10-22T18:25:03.846Z,4.22
2022-10-22T18:27:30.405Z,4.57
2022-10-22T18:29:56.893Z,5.43
2022-10-22T18:32:23.413Z,6.32
2022-10-22T18:34:49.906Z,6.32
2022-10-22T18:37:16.434Z,6.50
2022-10-22T18:39:42.961Z,6.28
2022-10-22T18:42:09.511Z,6.95
2022-10-22T18:44:36.219Z,6.32
2022-10-22T18:47:02.904Z,7.57
2022-10-22T18:49:29.438Z,6.85
2022-10-22T18:51:55.949Z,8.10
2022-10-22T18:54:24.002Z,7.30
2022-10-22T18:56:51.746Z,8.25
2022-10-22T18:59:23.698Z,8.38
2022-10-22T19:01:52.572Z,8.65
2022-10-22T19:04:19.122Z,6.80
2022-10-22T19:06:46.114Z,6.53
2022-10-22T19:09:15.010Z,6.15
2022-10-22T19:11:43.426Z,5.63
2022-10-22T19:14:09.970Z,5.22
2022-10-22T19:16:37.576Z,4.38
2022-10-22T19:19:05.828Z,5.32
2022-10-22T19:21:33.044Z,4.45
2022-10-22T19:24:00.249Z,4.05
2022-10-22T19:26:28.248Z,5.10
2022-10-22T19:28:55.447Z,3.90
2022-10-22T19:31:24.293Z,4.90
2022-10-22T19:33:51.574Z,4.93
2022-10-22T19:36:18.908Z,5.10
2022-10-22T19:38:47.872Z,5.60
2022-10-22T19:41:17.059Z,4.30
2022-10-22T19:43:44.717Z,5.53
2022-10-22T19:46:12.105Z,5.05
2022-10-22T19:48:38.970Z,5.63
2022-10-22T19:51:09.248Z,5.50
2022-10-22T19:53:37.566Z,5.20
2022-10-22T19:56:09.140Z,5.82
2022-10-22T19:58:36.409Z,5.32
2022-10-22T20:01:08.414Z,5.53
2022-10-22T20:03:36.308Z,6.22
2022-10-22T20:06:04.034Z,6.65
2022-10-22T20:08:31.953Z,5.80
2022-10-22T20:10:58.530Z,6.32
2022-10-22T20:13:25.133Z,6.15
2022-10-22T20:15:53.510Z,7.78
2022-10-22T20:18:22.284Z,7.13
2022-10-22T20:20:49.465Z,7.18
2022-10-22T20:23:15.995Z,6.78
2022-10-22T20:25:44.480Z,7.70
2022-10-22T20:28:11.913Z,8.43
2022-10-22T20:30:42.698Z,9.20
2022-10-22T20:33:14.318Z,8.73
2022-10-22T20:35:40.872Z,8.63
2022-10-22T20:38:08.595Z,8.85
2022-10-22T20:40:35.203Z,7.80
2022-10-22T20:43:02.006Z,9.15
2022-10-22T20:45:28.623Z,9.02
2022-10-22T20:48:02.082Z,9.60
2022-10-22T20:50:31.962Z,9.15
2022-10-22T20:52:58.984Z,9.52
2022-10-22T20:55:25.958Z,8.07
2022-10-22T20:57:52.459Z,9.00
2022-10-22T21:00:18.992Z,11.20
2022-10-22T21:02:45.515Z,10.77
2022-10-22T21:05:12.057Z,9.00
2022-10-22T21:07:38.828Z,9.13
2022-10-22T21:10:05.944Z,10.23
2022-10-22T21:12:32.442Z,10.60
2022-10-22T21:14:58.998Z,9.30
2022-10-22T21:17:25.534Z,9.75
2022-10-22T21:19:52.041Z,10.65
2022-10-22T21:22:18.549Z,10.82
2022-10-22T21:24:45.075Z,9.05
2022-10-22T21:27:11.570Z,11.00
2022-10-22T21:29:38.106Z,11.23
2022-10-22T21:32:04.829Z,11.20
2022-10-22T21:34:35.481Z,11.27
2022-10-22T21:37:05.281Z,12.70
2022-10-22T21:39:31.788Z,10.95
2022-10-22T21:41:58.322Z,11.57
2022-10-22T21:44:24.982Z,15.25
2022-10-22T21:46:51.557Z,12.98
2022-10-22T21:49:18.296Z,11.90
2022-10-22T21:51:44.978Z,10.48
2022-10-22T21:54:12.584Z,12.90
2022-10-22T21:56:39.504Z,12.05
2022-10-22T21:59:07.151Z,11.45
2022-10-22T22:01:34.004Z,10.80
2022-10-22T22:04:00.874Z,12.68
2022-10-22T22:06:30.687Z,12.82
2022-10-22T22:08:58.917Z,12.02
2022-10-22T22:11:26.695Z,9.35
2022-10-22T22:13:54.265Z,11.48
2022-10-22T22:16:27.257Z,11.45
2022-10-22T22:18:56.319Z,11.73
2022-10-22T22:21:22.852Z,11.38
2022-10-22T22:23:50.330Z,9.02
2022-10-22T22:26:25.210Z,11.63
2022-10-22T22:28:55.264Z,9.73
2022-10-22T22:31:23.914Z,11.98
2022-10-22T22:33:51.520Z,11.52
2022-10-22T22:36:18.026Z,12.32
2022-10-22T22:38:44.541Z,12.73
2022-10-22T22:41:11.160Z,13.27
2022-10-22T22:43:37.703Z,9.70
2022-10-22T22:46:10.608Z,11.75
2022-10-22T22:48:37.288Z,10.52
2022-10-22T22:51:04.957Z,10.63
2022-10-22T22:53:32.489Z,10.95
2022-10-22T22:56:13.848Z,11.90
2022-10-22T22:58:40.938Z,11.93
2022-10-22T23:01:24.978Z,16.23
2022-10-22T23:03:57.115Z,9.82
2022-10-22T23:06:25.432Z,10.82
2022-10-22T23:08:52.786Z,10.65
2022-10-22T23:11:20.116Z,13.00
2022-10-22T23:13:47.229Z,11.25
2022-10-22T23:16:16.790Z,10.68
2022-10-22T23:18:44.970Z,12.55
2022-10-22T23:21:19.244Z,13.48
2022-10-22T23:23:47.922Z,13.60
2022-10-22T23:26:16.183Z,14.70
2022-10-22T23:28:42.753Z,12.48
2022-10-22T23:31:12.690Z,14.65
2022-10-22T23:33:39.213Z,15.52
2022-10-22T23:36:08.518Z,17.55
2022-10-22T23:38:36.288Z,14.50
2022-10-22T23:41:03.563Z,12.90
2022-10-22T23:43:30.933Z,13.70
2022-10-22T23:45:57.453Z,15.88
2022-10-22T23:48:24.058Z,12.38
2022-10-22T23:50:50.655Z,13.70
2022-10-22T23:53:17.229Z,13.57
2022-10-22T23:55:44.341Z,11.10
2022-10-22T23:58:11.704Z,14.75
